createdAt,value
2023-01-04T17:01:58.188Z,10.20
2023-01-04T17:03:32.258Z,6.80
2023-01-04T17:05:05.076Z,7.00
2023-01-04T17:06:42.205Z,7.00
2023-01-04T17:08:14.577Z,7.40
2023-01-04T17:09:47.092Z,8.60
2023-01-04T17:12:19.014Z,8.00
2023-01-04T17:13:16.373Z,7.00
2023-01-04T17:15:00.755Z,8.00
2023-01-04T17:16:41.251Z,8.60
2023-01-04T17:18:15.458Z,8.20
2023-01-04T17:19:47.923Z,8.20
2023-01-04T17:21:33.673Z,6.40
2023-01-04T17:23:07.823Z,9.00
2023-01-04T17:24:40.205Z,8.80
2023-01-04T17:26:23.964Z,11.00
2023-01-04T17:27:56.211Z,8.00
2023-01-04T17:29:28.603Z,15.00
2023-01-04T17:31:04.113Z,11.40
2023-01-04T17:32:36.444Z,12.20
2023-01-04T17:34:09.890Z,9.60
2023-01-04T17:35:42.444Z,10.20
2023-01-04T17:37:14.454Z,6.60
2023-01-04T17:38:46.515Z,13.20
2023-01-04T17:40:22.869Z,10.00
2023-01-04T17:41:56.042Z,9.80
2023-01-04T17:43:28.290Z,7.60
2023-01-04T17:45:00.618Z,8.20
2023-01-04T17:46:34.618Z,6.00
2023-01-04T17:48:07.411Z,7.20
2023-01-04T17:49:39.647Z,8.80
2023-01-04T17:51:22.284Z,6.60
2023-01-04T17:52:56.846Z,5.80
2023-01-04T17:54:29.254Z,11.40
2023-01-04T17:56:03.161Z,8.40
2023-01-04T17:57:35.895Z,6.20
2023-01-04T17:59:08.372Z,8.80
2023-01-04T18:00:40.951Z,7.00
2023-01-04T18:02:13.354Z,8.00
2023-01-04T18:03:47.087Z,5.00
2023-01-04T18:05:19.402Z,8.00
2023-01-04T18:06:51.803Z,5.60
2023-01-04T18:08:24.121Z,7.40
2023-01-04T18:09:56.471Z,30.80
2023-01-04T18:11:28.849Z,45.80
2023-01-04T18:13:01.259Z,47.25
2023-01-04T18:14:33.255Z,51.25
2023-01-04T18:16:23.910Z,54.50
2023-01-04T18:17:57.312Z,74.50
2023-01-04T18:19:30.606Z,78.50
2023-01-04T18:21:27.935Z,81.00
2023-01-04T18:23:01.254Z,84.00
2023-01-04T18:24:36.633Z,98.20
2023-01-04T18:26:09.487Z,101.80
2023-01-04T18:27:41.722Z,100.20
2023-01-04T18:29:14.121Z,97.20
2023-01-04T18:30:46.287Z,126.50
2023-01-04T18:32:18.618Z,119.50
2023-01-04T18:33:54.764Z,128.25
2023-01-04T18:35:27.084Z,117.25
2023-01-04T18:36:59.490Z,121.25
2023-01-04T18:38:31.885Z,121.50
2023-01-04T18:40:04.957Z,124.50
2023-01-04T18:41:37.338Z,150.00
2023-01-04T18:43:09.862Z,148.25
2023-01-04T18:44:48.012Z,161.00
2023-01-04T18:46:23.850Z,157.75
2023-01-04T18:47:55.859Z,158.25
2023-01-04T18:49:28.140Z,152.25
2023-01-04T18:51:08.740Z,162.50
2023-01-04T18:52:41.162Z,153.50
2023-01-04T18:54:20.794Z,169.50
2023-01-04T18:55:52.910Z,164.00
2023-01-04T18:57:25.009Z,154.25
2023-01-04T18:58:57.160Z,168.75
2023-01-04T19:00:30.062Z,171.00
2023-01-04T19:02:04.551Z,154.75
2023-01-04T19:03:38.311Z,161.00
2023-01-04T19:05:11.380Z,158.25
2023-01-04T19:06:43.485Z,160.75
2023-01-04T19:08:15.438Z,164.25
2023-01-04T19:09:47.391Z,155.25
2023-01-04T19:11:19.676Z,154.50
2023-01-04T19:12:51.723Z,162.50
2023-01-04T19:14:23.812Z,189.25
2023-01-04T19:15:56.045Z,162.75
2023-01-04T19:17:27.950Z,164.75
2023-01-04T19:19:00.536Z,138.50
2023-01-04T19:20:33.100Z,135.50
2023-01-04T19:22:05.159Z,145.25
2023-01-04T19:23:37.714Z,128.50
2023-01-04T19:25:09.926Z,129.25
2023-01-04T19:26:41.854Z,129.00
2023-01-04T19:28:13.799Z,138.50
2023-01-04T19:29:46.230Z,134.25
2023-01-04T19:31:19.681Z,135.25
2023-01-04T19:32:52.041Z,137.50
2023-01-04T19:34:23.977Z,140.50
2023-01-04T19:35:55.878Z,148.50
2023-01-04T19:37:28.927Z,143.25
2023-01-04T19:39:04.436Z,155.50
2023-01-04T19:40:36.385Z,154.75
2023-01-04T19:42:08.763Z,156.50
2023-01-04T19:43:41.085Z,159.75
2023-01-04T19:45:13.335Z,161.00
2023-01-04T19:46:45.383Z,167.25
2023-01-04T19:48:17.281Z,165.25
2023-01-04T19:49:49.280Z,176.25
2023-01-04T19:51:21.312Z,190.00
2023-01-04T19:52:53.571Z,181.25
2023-01-04T19:54:26.018Z,176.25
2023-01-04T19:55:58.197Z,192.67
2023-01-04T19:57:30.180Z,183.50
2023-01-04T19:59:02.444Z,185.67
2023-01-04T20:00:34.551Z,191.67
2023-01-04T20:02:06.698Z,187.00
2023-01-04T20:03:38.725Z,186.25
2023-01-04T20:05:11.083Z,196.00
2023-01-04T20:06:43.081Z,191.00
2023-01-04T20:08:14.969Z,184.33
2023-01-04T20:09:48.774Z,182.00
2023-01-04T20:11:20.674Z,189.67
2023-01-04T20:12:52.589Z,176.33
2023-01-04T20:14:24.557Z,192.00
2023-01-04T20:15:56.935Z,196.33
2023-01-04T20:17:28.944Z,173.25
2023-01-04T20:19:00.894Z,169.00
2023-01-04T20:20:33.327Z,165.75
2023-01-04T20:22:05.194Z,138.75
2023-01-04T20:23:38.133Z,146.25
2023-01-04T20:25:10.215Z,146.25
2023-01-04T20:26:42.295Z,137.00
2023-01-04T20:28:14.672Z,136.50
2023-01-04T20:29:46.749Z,98.00
2023-01-04T20:31:18.968Z,125.75
2023-01-04T20:32:51.404Z,134.25
2023-01-04T20:34:23.694Z,141.75
2023-01-04T20:35:55.833Z,141.50
2023-01-04T20:37:28.128Z,155.75
2023-01-04T20:39:01.878Z,140.50
2023-01-04T20:40:33.891Z,129.50
2023-01-04T20:42:24.675Z,135.50
2023-01-04T20:43:57.085Z,135.75
2023-01-04T20:45:29.411Z,160.50
2023-01-04T20:47:01.720Z,139.50
2023-01-04T20:48:34.124Z,149.25
2023-01-04T20:50:07.022Z,135.75
2023-01-04T20:51:39.205Z,129.25
2023-01-04T20:53:11.875Z,143.00
2023-01-04T20:54:45.166Z,136.25
2023-01-04T20:56:18.931Z,129.75
2023-01-04T20:57:51.226Z,128.50
2023-01-04T20:59:23.290Z,126.50
2023-01-04T21:00:55.243Z,118.50
2023-01-04T21:02:27.829Z,109.75
2023-01-04T21:04:00.617Z,100.50
2023-01-04T21:05:44.646Z,111.25
2023-01-04T21:07:16.595Z,109.60
2023-01-04T21:08:50.457Z,107.80
2023-01-04T21:10:22.377Z,98.20
2023-01-04T21:11:55.926Z,95.75
2023-01-04T21:13:28.524Z,113.00
2023-01-04T21:15:00.433Z,92.50
2023-01-04T21:16:32.274Z,93.50
2023-01-04T21:18:05.728Z,89.00
2023-01-04T21:19:37.781Z,80.50
2023-01-04T21:21:13.093Z,89.25
2023-01-04T21:22:45.116Z,95.60
2023-01-04T21:24:17.067Z,102.80
2023-01-04T21:25:52.208Z,92.60
2023-01-04T21:27:24.179Z,98.20
2023-01-04T21:28:56.046Z,104.20
2023-01-04T21:30:27.974Z,100.20
2023-01-04T21:31:59.927Z,108.40
2023-01-04T21:33:31.954Z,102.40
2023-01-04T21:35:04.101Z,107.20
2023-01-04T21:36:36.123Z,114.25
2023-01-04T21:38:08.588Z,114.25
2023-01-04T21:39:40.448Z,124.50
2023-01-04T21:41:13.651Z,128.00
2023-01-04T21:42:45.531Z,123.25
2023-01-04T21:44:17.478Z,139.25
2023-01-04T21:45:49.471Z,140.75
2023-01-04T21:47:21.569Z,132.00
2023-01-04T21:48:55.673Z,131.75
2023-01-04T21:50:30.734Z,149.00
2023-01-04T21:52:02.681Z,141.25
2023-01-04T21:53:35.583Z,139.25
2023-01-04T21:55:07.949Z,136.25
2023-01-04T21:56:39.959Z,133.25
2023-01-04T21:58:11.879Z,131.75
2023-01-04T21:59:43.755Z,135.75
2023-01-04T22:01:20.377Z,129.50
2023-01-04T22:02:52.751Z,130.00
2023-01-04T22:04:24.952Z,131.25
2023-01-04T22:06:01.238Z,123.50
2023-01-04T22:07:33.185Z,130.75
2023-01-04T22:09:05.628Z,115.75
2023-01-04T22:10:37.518Z,121.75
2023-01-04T22:12:09.481Z,122.75
2023-01-04T22:13:41.475Z,124.50
2023-01-04T22:15:13.389Z,115.50
2023-01-04T22:16:45.499Z,117.25
2023-01-04T22:18:17.819Z,101.00
2023-01-04T22:19:49.723Z,106.80
2023-01-04T22:21:23.943Z,107.00
2023-01-04T22:22:55.924Z,100.60
2023-01-04T22:24:30.376Z,97.80
2023-01-04T22:26:05.913Z,98.60
2023-01-04T22:27:37.883Z,99.00
2023-01-04T22:29:10.379Z,90.80
2023-01-04T22:30:42.553Z,88.80
2023-01-04T22:32:14.450Z,93.00
2023-01-04T22:33:46.373Z,98.00
2023-01-04T22:35:19.332Z,90.25
2023-01-04T22:36:51.414Z,87.00
2023-01-04T22:38:23.301Z,89.25
2023-01-04T22:39:55.293Z,85.25
2023-01-04T22:41:28.136Z,82.75
2023-01-04T22:43:00.073Z,71.25
2023-01-04T22:44:32.046Z,95.20
2023-01-04T22:46:05.723Z,96.80
2023-01-04T22:47:37.688Z,86.50
2023-01-04T22:49:09.759Z,68.75
2023-01-04T22:50:41.731Z,73.75
2023-01-04T22:52:13.722Z,59.75
2023-01-04T22:53:45.800Z,54.25
2023-01-04T22:55:17.865Z,56.75
2023-01-04T22:56:50.072Z,55.25
2023-01-04T22:58:22.120Z,59.25
2023-01-04T22:59:54.115Z,65.75
2023-01-04T23:01:30.570Z,69.00
2023-01-04T23:03:02.749Z,65.50
2023-01-04T23:04:34.835Z,66.00
2023-01-04T23:06:10.766Z,70.50
2023-01-04T23:07:42.596Z,71.25
2023-01-04T23:09:15.898Z,80.00
2023-01-04T23:10:47.798Z,76.50
2023-01-04T23:12:19.768Z,80.75
2023-01-04T23:13:51.939Z,86.50
2023-01-04T23:15:24.025Z,84.25
2023-01-04T23:16:55.907Z,90.75
2023-01-04T23:18:27.886Z,98.00
2023-01-04T23:19:59.891Z,89.25
2023-01-04T23:21:32.429Z,90.50
2023-01-04T23:23:04.243Z,84.40
2023-01-04T23:24:38.116Z,92.40
2023-01-04T23:26:17.880Z,93.00
2023-01-04T23:27:49.875Z,105.00
2023-01-04T23:29:21.952Z,98.20
2023-01-04T23:30:53.870Z,101.00
2023-01-04T23:32:25.692Z,99.40
2023-01-04T23:34:00.194Z,96.20
